Time;durP1;ratioP1;P1;durP2;ratioP2;P2;SDS_P1;SDS_P2;PMS_P1;PMS_P2;Temp;Humidity;BMP_temperature;BMP_pressure;BME280_temperature;BME280_humidity;BME280_pressure;Samples;Min_cycle;Max_cycle;Signal;HPM_P1;HPM_P2
2023/03/20 00:02:01;;;;;;;11.17;7.60;;;;;;;7.79;100.00;100707.25;5030106;28;20349;-69
2023/03/20 00:04:28;;;;;;;10.60;7.23;;;;;;;7.74;100.00;100715.88;5030837;28;20239;-70
2023/03/20 00:06:55;;;;;;;12.03;7.80;;;;;;;7.71;100.00;100719.31;5028221;28;20196;-69
2023/03/20 00:09:21;;;;;;;12.20;8.00;;;;;;;7.79;100.00;100716.91;5027539;28;20195;-70
2023/03/20 00:11:50;;;;;;;11.70;7.77;;;;;;;7.76;100.00;100725.63;5026073;28;20704;-70
2023/03/20 00:14:19;;;;;;;11.37;8.10;;;;;;;7.78;100.00;100723.94;5025661;28;20200;-69
2023/03/20 00:16:47;;;;;;;11.40;7.50;;;;;;;7.74;100.00;100726.44;5022256;28;20573;-69
2023/03/20 00:19:17;;;;;;;14.73;8.07;;;;;;;7.77;100.00;100721.25;5030558;28;20249;-69
2023/03/20 00:21:46;;;;;;;11.37;8.37;;;;;;;7.82;100.00;100720.53;5023747;28;20223;-69
2023/03/20 00:24:14;;;;;;;11.70;7.77;;;;;;;7.85;100.00;100725.91;5019747;28;20224;-70
2023/03/20 00:26:43;;;;;;;11.93;8.17;;;;;;;7.79;100.00;100723.09;5027294;28;20206;-69
2023/03/20 00:29:19;;;;;;;12.90;7.90;;;;;;;7.77;100.00;100716.88;5025236;28;20259;-70
2023/03/20 00:31:45;;;;;;;12.03;7.87;;;;;;;7.74;100.00;100727.31;5025543;28;20216;-69
2023/03/20 00:34:15;;;;;;;10.77;7.80;;;;;;;7.73;100.00;100722.00;5024258;28;20207;-70
2023/03/20 00:36:41;;;;;;;10.40;7.17;;;;;;;7.71;100.00;100721.06;5025541;28;20258;-69
2023/03/20 00:39:08;;;;;;;13.13;8.20;;;;;;;7.68;100.00;100720.97;5022167;28;20192;-69
2023/03/20 00:41:37;;;;;;;10.60;7.90;;;;;;;7.70;100.00;100733.34;5026971;28;20603;-69
2023/03/20 00:44:22;;;;;;;11.10;7.93;;;;;;;7.70;100.00;100733.34;5030450;28;20226;-70
2023/03/20 00:46:52;;;;;;;13.27;8.90;;;;;;;7.71;100.00;100728.97;5029698;28;20291;-70
2023/03/20 00:49:26;;;;;;;12.27;8.33;;;;;;;7.74;100.00;100724.69;5023066;28;20686;-70
2023/03/20 00:51:53;;;;;;;12.93;8.20;;;;;;;7.74;100.00;100740.50;5019442;28;20223;-69
2023/03/20 00:54:20;;;;;;;10.70;7.70;;;;;;;7.77;100.00;100729.16;5023731;28;20251;-70
2023/03/20 00:57:11;;;;;;;13.77;8.53;;;;;;;7.78;100.00;100733.59;5024145;28;20205;-70
2023/03/20 00:59:40;;;;;;;11.20;8.03;;;;;;;7.79;100.00;100724.81;5025590;28;20196;-69
2023/03/20 01:02:08;;;;;;;13.43;7.97;;;;;;;7.82;100.00;100728.44;5026378;28;20236;-69
2023/03/20 01:04:38;;;;;;;11.70;7.53;;;;;;;7.83;100.00;100727.59;5021591;28;20787;-70
2023/03/20 01:07:06;;;;;;;11.03;7.83;;;;;;;7.89;100.00;100728.63;5025182;28;20200;-69
2023/03/20 01:09:32;;;;;;;10.47;8.10;;;;;;;7.97;100.00;100721.81;5020194;28;20223;-70
2023/03/20 01:12:00;;;;;;;10.27;7.60;;;;;;;8.10;100.00;100727.50;5023021;28;20655;-70
2023/03/20 01:14:26;;;;;;;9.97;7.33;;;;;;;8.10;100.00;100732.78;5020629;28;20229;-70
2023/03/20 01:16:53;;;;;;;11.97;7.67;;;;;;;8.12;100.00;100731.09;5024943;28;20203;-69
2023/03/20 01:19:19;;;;;;;12.23;8.47;;;;;;;8.10;100.00;100734.53;5021286;28;20202;-70
2023/03/20 01:21:45;;;;;;;11.43;8.40;;;;;;;8.01;100.00;100729.91;5023391;28;20368;-70
2023/03/20 01:24:12;;;;;;;10.50;7.60;;;;;;;8.02;100.00;100742.22;5023967;28;20287;-70
2023/03/20 01:26:41;;;;;;;10.97;7.60;;;;;;;8.00;100.00;100728.06;5026690;28;20672;-69
2023/03/20 01:29:23;;;;;;;10.83;7.30;;;;;;;7.99;100.00;100736.84;5021278;28;20547;-70
2023/03/20 01:31:50;;;;;;;11.40;7.83;;;;;;;7.98;100.00;100744.72;5023421;28;20263;-70
2023/03/20 01:34:18;;;;;;;10.30;7.50;;;;;;;8.01;100.00;100752.75;5027991;28;20224;-70
2023/03/20 01:36:48;;;;;;;10.77;7.73;;;;;;;7.99;100.00;100750.03;5025067;28;20242;-69
2023/03/20 01:39:16;;;;;;;9.97;7.50;;;;;;;7.98;100.00;100748.25;5026421;28;20234;-69
2023/03/20 01:41:44;;;;;;;9.70;7.20;;;;;;;7.97;100.00;100742.91;5026425;28;20243;-70
2023/03/20 01:44:29;;;;;;;15.80;7.70;;;;;;;8.03;100.00;100736.09;5018232;28;20215;-69
2023/03/20 01:46:57;;;;;;;11.43;7.63;;;;;;;8.05;100.00;100744.06;5012948;28;20211;-69
2023/03/20 01:49:23;;;;;;;10.97;8.13;;;;;;;8.08;100.00;100741.50;5027056;28;20200;-69
2023/03/20 01:51:51;;;;;;;10.17;7.57;;;;;;;8.04;100.00;100742.28;5024047;28;20251;-70
2023/03/20 01:54:24;;;;;;;9.87;7.47;;;;;;;8.05;100.00;100742.31;5024695;28;20237;-70
2023/03/20 01:57:00;;;;;;;11.07;7.50;;;;;;;8.10;100.00;100743.34;5027054;28;20333;-69
2023/03/20 01:59:43;;;;;;;11.40;8.00;;;;;;;8.11;100.00;100741.59;5026945;28;20229;-70
2023/03/20 02:02:14;;;;;;;12.90;8.30;;;;;;;8.09;100.00;100743.28;5022069;28;20282;-70
2023/03/20 02:04:45;;;;;;;12.03;7.43;;;;;;;8.23;100.00;100757.78;5024666;28;20609;-69
2023/03/20 02:07:17;;;;;;;12.77;7.17;;;;;;;8.17;100.00;100752.31;5028116;28;20653;-69
2023/03/20 02:09:46;;;;;;;10.47;7.40;;;;;;;8.16;100.00;100751.44;5023508;28;20234;-70
2023/03/20 02:12:13;;;;;;;9.60;6.97;;;;;;;8.16;100.00;100754.06;5027193;28;20298;-70
2023/03/20 02:14:40;;;;;;;9.27;7.20;;;;;;;8.14;100.00;100758.41;5021319;28;20687;-70
2023/03/20 02:17:08;;;;;;;10.60;7.87;;;;;;;8.11;100.00;100750.41;5027900;28;20219;-69
2023/03/20 02:20:05;;;;;;;9.20;7.30;;;;;;;8.09;100.00;100760.03;5022994;28;20270;-69
2023/03/20 02:22:44;;;;;;;9.37;7.17;;;;;;;8.16;100.00;100753.16;5022136;28;20500;-70
2023/03/20 02:25:48;;;;;;;10.47;7.87;;;;;;;8.20;100.00;100751.50;5025830;28;20220;-69
2023/03/20 02:28:38;;;;;;;9.60;6.80;;;;;;;8.21;100.00;100754.19;5023380;28;20210;-70
2023/03/20 02:31:44;;;;;;;9.63;6.90;;;;;;;8.21;100.00;100751.56;5026052;28;20722;-69
2023/03/20 02:34:38;;;;;;;10.33;6.90;;;;;;;8.28;100.00;100755.25;5021742;28;20222;-69
2023/03/20 02:37:37;;;;;;;9.40;6.93;;;;;;;8.20;100.00;100747.13;5023230;28;20201;-70
2023/03/20 02:40:18;;;;;;;14.30;7.30;;;;;;;8.18;100.00;100744.44;5024920;28;20299;-69
2023/03/20 02:43:01;;;;;;;10.57;7.30;;;;;;;8.18;100.00;100748.84;5022039;28;20211;-70
2023/03/20 02:45:27;;;;;;;12.03;7.13;;;;;;;8.20;100.00;100755.03;5026767;28;20599;-70
2023/03/20 02:48:19;;;;;;;11.20;7.57;;;;;;;8.16;100.00;100754.06;5027762;28;20269;-69
2023/03/20 02:51:10;;;;;;;13.13;7.20;;;;;;;8.15;100.00;100760.19;5022462;28;20219;-69
2023/03/20 02:53:50;;;;;;;10.90;7.30;;;;;;;8.16;100.00;100751.44;5021527;28;20258;-70
2023/03/20 02:56:56;;;;;;;10.80;7.47;;;;;;;8.16;100.00;100754.06;5028923;28;20223;-69
2023/03/20 02:59:25;;;;;;;11.27;7.27;;;;;;;8.22;100.00;100752.44;5014949;28;20199;-70
2023/03/20 03:02:03;;;;;;;11.33;7.67;;;;;;;8.25;100.00;100757.81;5018839;28;20213;-70
2023/03/20 03:04:34;;;;;;;13.43;7.87;;;;;;;8.20;100.00;100751.50;5028416;28;20264;-69
2023/03/20 03:07:02;;;;;;;12.27;8.23;;;;;;;8.17;100.00;100749.69;5028974;28;20192;-69
2023/03/20 03:09:41;;;;;;;11.23;7.97;;;;;;;8.17;100.00;100741.78;5026701;28;20216;-69
2023/03/20 03:12:14;;;;;;;10.30;7.10;;;;;;;8.14;100.00;100744.31;5028832;28;20278;-70
2023/03/20 03:14:49;;;;;;;10.90;7.80;;;;;;;8.16;100.00;100748.78;5032926;28;20189;-69
2023/03/20 03:17:19;;;;;;;11.43;7.77;;;;;;;8.12;100.00;100748.66;5023299;28;20226;-69
2023/03/20 03:19:49;;;;;;;9.57;7.10;;;;;;;8.15;100.00;100746.09;5025719;28;20223;-70
2023/03/20 03:22:17;;;;;;;10.73;7.50;;;;;;;8.14;100.00;100747.84;5029145;28;20223;-70
2023/03/20 03:24:48;;;;;;;11.20;7.47;;;;;;;8.16;100.00;100748.78;5029288;28;20358;-69
2023/03/20 03:27:25;;;;;;;10.50;7.33;;;;;;;8.17;100.00;100753.22;5024920;28;20215;-69
2023/03/20 03:29:59;;;;;;;11.57;7.40;;;;;;;8.20;100.00;100752.41;5024434;28;20246;-70
2023/03/20 03:32:33;;;;;;;12.80;7.77;;;;;;;8.24;100.00;100758.66;5025276;28;20226;-69
2023/03/20 03:35:02;;;;;;;11.17;7.50;;;;;;;8.29;100.00;100759.69;5031941;28;20194;-69
2023/03/20 03:37:53;;;;;;;11.93;8.10;;;;;;;8.36;100.00;100764.31;5028870;28;20192;-70
2023/03/20 03:40:32;;;;;;;12.17;7.67;;;;;;;8.38;100.00;100774.06;5029471;28;20187;-70
2023/03/20 03:43:27;;;;;;;11.40;8.03;;;;;;;8.46;100.00;100785.75;5027119;28;20294;-69
2023/03/20 03:46:45;;;;;;;12.00;7.37;;;;;;;8.49;100.00;100782.31;5030265;28;20251;-69
2023/03/20 03:49:17;;;;;;;10.37;7.03;;;;;;;8.48;100.00;100791.97;5023691;28;20204;-70
2023/03/20 03:51:49;;;;;;;11.27;6.97;;;;;;;8.50;100.00;100783.19;5027997;28;20229;-70
2023/03/20 03:54:21;;;;;;;10.80;7.60;;;;;;;8.53;100.00;100784.19;5024283;28;20200;-69
2023/03/20 03:56:49;;;;;;;11.53;7.00;;;;;;;8.56;100.00;100773.69;5027367;28;20284;-69
2023/03/20 03:59:26;;;;;;;9.47;6.83;;;;;;;8.61;100.00;100782.63;5028043;28;20431;-70
2023/03/20 04:01:55;;;;;;;10.70;7.03;;;;;;;8.58;100.00;100772.00;5024703;28;20251;-69
2023/03/20 04:04:24;;;;;;;11.00;6.97;;;;;;;8.62;100.00;100775.59;5027505;28;20292;-69
2023/03/20 04:06:51;;;;;;;13.13;7.87;;;;;;;8.64;100.00;100777.44;5025323;28;20284;-69
2023/03/20 04:09:17;;;;;;;10.60;7.60;;;;;;;8.66;100.00;100767.81;5023868;28;20220;-70
2023/03/20 04:11:49;;;;;;;12.20;7.67;;;;;;;8.85;100.00;100766.56;5021018;28;20218;-69
2023/03/20 04:14:15;;;;;;;11.63;8.10;;;;;;;8.96;100.00;100783.59;5026787;28;20672;-69
2023/03/20 04:16:42;;;;;;;10.93;7.13;;;;;;;8.98;100.00;100787.16;5026545;28;20685;-69
2023/03/20 04:19:08;;;;;;;10.90;7.43;;;;;;;8.98;100.00;100783.63;5026867;28;20227;-69
2023/03/20 04:21:35;;;;;;;10.13;6.90;;;;;;;8.92;100.00;100781.72;5021066;28;20216;-69
2023/03/20 04:24:02;;;;;;;10.30;7.03;;;;;;;8.96;100.00;100786.22;5029042;28;20231;-69
2023/03/20 04:26:28;;;;;;;12.63;6.87;;;;;;;9.04;100.00;100792.59;5022260;28;20739;-70
2023/03/20 04:28:54;;;;;;;10.23;7.23;;;;;;;9.06;100.00;100800.56;5024721;28;20671;-69
2023/03/20 04:31:21;;;;;;;13.47;7.97;;;;;;;8.91;100.00;100801.06;5027915;28;20253;-70
2023/03/20 04:33:48;;;;;;;12.57;8.50;;;;;;;8.91;100.00;100805.44;5030899;28;20752;-69
2023/03/20 04:36:14;;;;;;;10.80;7.57;;;;;;;8.88;100.00;100810.66;5024453;28;20245;-69
2023/03/20 04:38:41;;;;;;;11.30;7.63;;;;;;;8.83;100.00;100807.88;5021382;28;20615;-70
2023/03/20 04:41:07;;;;;;;14.00;8.23;;;;;;;8.83;100.00;100804.34;5030224;28;20642;-70
2023/03/20 04:43:34;;;;;;;17.53;8.23;;;;;;;8.84;100.00;100806.16;5028214;28;20201;-69
2023/03/20 04:46:00;;;;;;;13.77;8.60;;;;;;;9.03;100.00;100814.59;5023512;28;20291;-69
2023/03/20 04:48:26;;;;;;;20.67;10.90;;;;;;;9.06;100.00;100816.41;5030650;28;20667;-70
2023/03/20 04:50:53;;;;;;;20.00;10.57;;;;;;;9.04;100.00;100820.75;5028271;28;20664;-70
2023/03/20 04:53:19;;;;;;;19.50;10.90;;;;;;;9.11;100.00;100822.69;5030174;28;20239;-69
2023/03/20 04:55:46;;;;;;;22.63;12.80;;;;;;;9.14;100.00;100820.13;5026621;28;20260;-69
2023/03/20 04:58:13;;;;;;;27.77;14.37;;;;;;;9.17;100.00;100833.44;5024799;28;20257;-69
2023/03/20 05:00:39;;;;;;;35.77;17.30;;;;;;;9.26;100.00;100828.41;5029433;28;20215;-69
2023/03/20 05:03:06;;;;;;;39.97;18.10;;;;;;;9.31;100.00;100826.78;5024621;28;20376;-69
2023/03/20 05:05:33;;;;;;;41.30;18.80;;;;;;;9.30;100.00;100819.69;5028395;28;20215;-69
2023/03/20 05:07:59;;;;;;;45.23;19.13;;;;;;;9.27;100.00;100809.06;5024852;28;20238;-69
2023/03/20 05:10:26;;;;;;;48.57;19.13;;;;;;;9.07;100.00;100810.28;5026801;28;20719;-69
2023/03/20 05:12:52;;;;;;;42.07;17.67;;;;;;;8.95;100.00;100810.84;5029793;28;20254;-68
2023/03/20 05:15:18;;;;;;;42.13;18.07;;;;;;;8.86;100.00;100802.69;5025929;28;20252;-69
2023/03/20 05:17:45;;;;;;;41.37;17.97;;;;;;;8.78;100.00;100801.56;5021975;28;20200;-69
2023/03/20 05:20:11;;;;;;;42.10;18.73;;;;;;;8.73;100.00;100790.88;5020231;28;20687;-69
2023/03/20 05:22:37;;;;;;;45.60;18.67;;;;;;;8.70;100.00;100793.44;5028023;28;20239;-69
2023/03/20 05:25:04;;;;;;;45.90;19.60;;;;;;;8.74;100.00;100794.41;5023472;28;20301;-69
2023/03/20 05:27:31;;;;;;;40.50;17.63;;;;;;;8.72;100.00;100788.19;5027360;28;20678;-69
2023/03/20 05:29:57;;;;;;;45.23;17.87;;;;;;;8.64;100.00;100788.00;5026604;28;20195;-69
2023/03/20 05:32:24;;;;;;;41.33;17.70;;;;;;;8.72;100.00;100802.28;5019785;28;20700;-69
2023/03/20 05:34:50;;;;;;;36.67;16.47;;;;;;;8.77;100.00;100807.69;5026745;28;20195;-69
2023/03/20 05:37:17;;;;;;;37.73;16.87;;;;;;;8.76;100.00;100820.00;5021616;28;20196;-69
2023/03/20 05:39:43;;;;;;;42.17;17.57;;;;;;;8.73;100.00;100816.38;5024921;28;20564;-69
2023/03/20 05:42:09;;;;;;;39.87;17.87;;;;;;;8.77;100.00;100815.63;5025689;28;20278;-69
2023/03/20 05:44:36;;;;;;;38.60;17.90;;;;;;;8.73;100.00;100803.19;5028394;28;20719;-69
2023/03/20 05:47:02;;;;;;;38.67;17.20;;;;;;;8.67;100.00;100808.31;5026317;28;20204;-69
2023/03/20 05:49:28;;;;;;;42.10;17.40;;;;;;;8.77;100.00;100811.22;5025438;28;20242;-69
2023/03/20 05:51:55;;;;;;;41.70;17.83;;;;;;;8.79;100.00;100813.91;5026896;28;20253;-69
2023/03/20 05:54:21;;;;;;;37.40;17.57;;;;;;;8.70;100.00;100803.09;5028069;28;20551;-69
2023/03/20 05:56:47;;;;;;;35.47;15.83;;;;;;;8.72;100.00;100817.25;5019569;28;20228;-69
2023/03/20 05:59:14;;;;;;;32.93;16.20;;;;;;;8.82;100.00;100813.13;5023624;28;20205;-69
2023/03/20 06:01:40;;;;;;;39.40;18.60;;;;;;;8.84;100.00;100816.72;5021063;28;20243;-69
2023/03/20 06:04:07;;;;;;;37.87;17.07;;;;;;;8.84;100.00;100829.91;5023635;28;20242;-69
2023/03/20 06:06:36;;;;;;;40.17;16.97;;;;;;;8.81;100.00;100838.66;5026622;28;20203;-68
2023/03/20 06:09:04;;;;;;;39.70;18.17;;;;;;;8.81;100.00;100837.75;5022784;28;20288;-69
2023/03/20 06:11:31;;;;;;;43.33;18.43;;;;;;;8.75;100.00;100841.97;5026806;28;20280;-69
2023/03/20 06:13:58;;;;;;;40.73;18.93;;;;;;;8.72;100.00;100839.25;5022927;28;20197;-69
2023/03/20 06:16:26;;;;;;;41.70;19.20;;;;;;;8.71;100.00;100840.13;5017536;28;20262;-69
2023/03/20 06:18:53;;;;;;;40.27;18.70;;;;;;;8.67;100.00;100838.25;5021318;28;20208;-69
2023/03/20 06:21:19;;;;;;;41.87;18.77;;;;;;;8.76;100.00;100841.13;5020977;28;20813;-72
2023/03/20 06:23:46;;;;;;;43.80;18.47;;;;;;;8.82;100.00;100839.53;5018852;28;20210;-71
2023/03/20 06:26:12;;;;;;;42.17;18.27;;;;;;;8.76;100.00;100830.56;5022215;28;20225;-71
2023/03/20 06:28:38;;;;;;;43.90;20.00;;;;;;;8.74;100.00;100837.56;5024642;28;20285;-71
2023/03/20 06:31:05;;;;;;;38.40;17.43;;;;;;;8.74;100.00;100834.03;5021909;28;20282;-71
2023/03/20 06:33:32;;;;;;;39.03;18.17;;;;;;;8.75;100.00;100835.81;5017936;28;20227;-71
2023/03/20 06:35:58;;;;;;;44.37;19.27;;;;;;;8.81;100.00;100829.84;5016747;28;20611;-71
2023/03/20 06:38:25;;;;;;;42.30;18.37;;;;;;;8.99;100.00;100838.25;5020750;28;20195;-71
2023/03/20 06:40:51;;;;;;;36.67;16.80;;;;;;;8.97;100.00;100835.56;5022807;28;20221;-70
2023/03/20 06:43:18;;;;;;;39.57;18.47;;;;;;;9.03;100.00;100832.19;5023040;28;20202;-70
2023/03/20 06:45:44;;;;;;;34.10;17.03;;;;;;;9.15;100.00;100836.88;5021158;28;20579;-70
2023/03/20 06:48:11;;;;;;;41.37;18.47;;;;;;;9.34;100.00;100834.78;5024037;28;20229;-71
2023/03/20 06:50:37;;;;;;;37.63;17.63;;;;;;;9.58;100.00;100828.28;5023174;28;20713;-72
2023/03/20 06:53:03;;;;;;;34.83;16.87;;;;;;;9.86;100.00;100822.81;5024483;28;20270;-71
2023/03/20 06:55:30;;;;;;;33.57;16.27;;;;;;;10.13;100.00;100832.25;5023080;28;20624;-71
2023/03/20 06:57:57;;;;;;;35.10;17.47;;;;;;;10.33;100.00;100841.53;5025196;28;20406;-71
2023/03/20 07:00:24;;;;;;;35.93;18.10;;;;;;;10.37;100.00;100843.38;5016975;28;20222;-71
2023/03/20 07:02:50;;;;;;;35.83;18.27;;;;;;;10.50;98.82;100829.56;5020032;28;20200;-69
2023/03/20 07:05:19;;;;;;;37.83;18.30;;;;;;;10.54;97.33;100847.28;5014473;28;20578;-69
2023/03/20 07:07:46;;;;;;;36.23;17.70;;;;;;;10.43;97.04;100850.59;5012240;28;20250;-69
2023/03/20 07:10:12;;;;;;;36.83;18.47;;;;;;;10.42;95.80;100851.44;5022098;28;20267;-69
2023/03/20 07:12:38;;;;;;;39.77;18.63;;;;;;;10.29;95.89;100844.97;5027120;28;20286;-70
2023/03/20 07:15:05;;;;;;;40.13;19.03;;;;;;;10.26;96.32;100847.56;5019057;28;20576;-69
2023/03/20 07:17:32;;;;;;;33.47;18.37;;;;;;;10.26;96.70;100858.16;5023037;28;20195;-70
2023/03/20 07:19:58;;;;;;;37.57;18.80;;;;;;;10.31;96.15;100864.44;5024284;28;20280;-69
2023/03/20 07:22:27;;;;;;;39.23;18.33;;;;;;;10.27;95.97;100870.53;5026640;28;20282;-69
2023/03/20 07:24:53;;;;;;;39.47;17.73;;;;;;;10.38;95.56;100868.09;5025839;28;20254;-69
2023/03/20 07:27:20;;;;;;;36.33;17.30;;;;;;;10.56;95.99;100866.75;5025324;28;20204;-67
2023/03/20 07:29:46;;;;;;;36.40;17.70;;;;;;;10.63;95.84;100860.72;5023356;28;20226;-69
2023/03/20 07:32:12;;;;;;;34.97;18.50;;;;;;;10.63;93.93;100873.06;5023458;28;20259;-70
2023/03/20 07:34:39;;;;;;;36.00;18.40;;;;;;;10.34;94.81;100872.44;5027686;28;20246;-70
2023/03/20 07:37:06;;;;;;;40.17;17.77;;;;;;;10.39;96.57;100884.03;5028728;28;20200;-69
2023/03/20 07:39:32;;;;;;;38.03;18.03;;;;;;;10.37;97.61;100885.75;5023799;28;20227;-70
2023/03/20 07:41:58;;;;;;;37.83;17.93;;;;;;;10.31;97.96;100883.84;5022262;28;20244;-70
2023/03/20 07:44:25;;;;;;;38.43;18.47;;;;;;;10.21;98.54;100888.91;5024772;28;20207;-70
2023/03/20 07:46:51;;;;;;;39.20;18.63;;;;;;;10.24;98.39;100886.34;5026527;28;20678;-70
2023/03/20 07:49:18;;;;;;;40.50;19.40;;;;;;;10.13;99.42;100887.81;5028327;28;20203;-70
2023/03/20 07:51:48;;;;;;;41.27;19.07;;;;;;;10.20;99.64;100876.50;5024401;28;20225;-70
2023/03/20 07:54:15;;;;;;;43.27;20.47;;;;;;;10.27;99.52;100866.13;5016193;28;20645;-70
2023/03/20 07:56:42;;;;;;;43.23;20.10;;;;;;;10.50;98.79;100861.34;5027851;28;20222;-69
2023/03/20 07:59:08;;;;;;;38.93;20.00;;;;;;;10.77;97.68;100855.69;5026205;28;20299;-70
2023/03/20 08:01:35;;;;;;;41.93;20.60;;;;;;;11.01;95.55;100863.25;5023047;28;20856;-70
2023/03/20 08:04:01;;;;;;;43.90;21.13;;;;;;;11.38;94.28;100864.81;5018900;28;20202;-70
2023/03/20 08:06:28;;;;;;;39.40;20.17;;;;;;;11.57;92.68;100879.28;5025414;28;20221;-71
2023/03/20 08:08:54;;;;;;;43.27;20.57;;;;;;;11.54;92.11;100882.78;5023304;28;20269;-72
2023/03/20 08:11:21;;;;;;;43.07;20.27;;;;;;;11.62;92.24;100877.63;5022045;28;20247;-70
2023/03/20 08:13:47;;;;;;;41.80;20.03;;;;;;;11.68;91.08;100883.03;5025435;28;20219;-70
2023/03/20 08:16:13;;;;;;;40.77;21.10;;;;;;;11.67;90.96;100885.66;5022931;28;20197;-71
2023/03/20 08:18:41;;;;;;;39.83;19.53;;;;;;;11.73;89.82;100883.09;5020012;28;20208;-70
2023/03/20 08:21:07;;;;;;;38.67;20.07;;;;;;;11.82;89.69;100889.47;5024204;28;20729;-71
2023/03/20 08:23:34;;;;;;;41.90;20.90;;;;;;;11.93;89.14;100887.00;5029017;28;20232;-72
2023/03/20 08:26:00;;;;;;;38.60;19.83;;;;;;;12.05;86.94;100902.25;5027363;28;20243;-70
2023/03/20 08:28:27;;;;;;;38.10;19.00;;;;;;;12.34;86.71;100898.22;5023798;28;20281;-72
2023/03/20 08:31:11;;;;;;;37.43;19.20;;;;;;;12.75;84.98;100898.78;5020526;28;20710;-71
2023/03/20 08:33:37;;;;;;;32.77;18.40;;;;;;;13.26;83.33;100892.34;5022044;28;20273;-71
2023/03/20 08:36:04;;;;;;;38.13;19.70;;;;;;;13.68;80.83;100901.63;5018815;28;20596;-71
2023/03/20 08:38:31;;;;;;;40.47;19.73;;;;;;;14.10;76.92;100914.41;5019306;28;20227;-71
2023/03/20 08:40:58;;;;;;;36.23;19.50;;;;;;;14.04;75.83;100917.91;5018378;28;20266;-73
2023/03/20 08:43:25;;;;;;;33.23;18.53;;;;;;;14.35;75.51;100918.09;5020292;28;20648;-75
2023/03/20 08:45:51;;;;;;;34.33;18.17;;;;;;;14.61;74.02;100915.63;5020055;28;20219;-76
2023/03/20 08:48:17;;;;;;;34.33;18.33;;;;;;;14.48;73.30;100913.78;5019769;28;20208;-78
2023/03/20 08:50:44;;;;;;;33.37;18.40;;;;;;;13.93;74.81;100919.56;5022531;28;20238;-76
2023/03/20 08:53:10;;;;;;;36.87;18.17;;;;;;;13.89;75.39;100911.56;5021097;28;20239;-74
2023/03/20 08:55:37;;;;;;;33.30;18.50;;;;;;;13.93;75.52;100918.69;5020312;28;20581;-75
2023/03/20 08:58:04;;;;;;;34.23;18.47;;;;;;;13.82;75.22;100917.72;5017664;28;20202;-76
2023/03/20 09:00:31;;;;;;;35.80;18.97;;;;;;;13.72;75.87;100922.97;5018985;28;20243;-74
2023/03/20 09:02:57;;;;;;;33.63;18.27;;;;;;;13.64;76.80;100915.78;5010130;28;20192;-75
2023/03/20 09:05:24;;;;;;;33.77;17.93;;;;;;;13.76;75.32;100923.88;5013426;28;20311;-72
2023/03/20 09:07:50;;;;;;;30.37;17.20;;;;;;;13.57;76.16;100916.56;5017735;28;20195;-73
2023/03/20 09:10:16;;;;;;;31.03;16.70;;;;;;;14.04;74.92;100917.91;5017242;28;20673;-74
2023/03/20 09:12:43;;;;;;;29.70;16.90;;;;;;;14.62;72.91;100912.09;5015602;28;20294;-78
2023/03/20 09:15:10;;;;;;;30.53;16.20;;;;;;;14.91;71.67;100905.13;5016036;28;20291;-81
2023/03/20 09:17:37;;;;;;;28.40;15.93;;;;;;;15.13;69.32;100905.19;5018181;28;20199;-82
2023/03/20 09:20:04;;;;;;;29.60;16.87;;;;;;;15.57;69.59;100911.50;5019154;28;20223;-77
2023/03/20 09:22:31;;;;;;;29.97;15.40;;;;;;;15.81;67.70;100912.47;5021939;28;20207;-75
2023/03/20 09:24:57;;;;;;;27.47;15.33;;;;;;;15.98;67.20;100910.69;5021117;28;20217;-72
2023/03/20 09:27:24;;;;;;;28.20;15.67;;;;;;;15.97;67.19;100908.91;5016079;28;20216;-72
2023/03/20 09:29:50;;;;;;;25.80;14.77;;;;;;;16.01;67.46;100908.03;5017287;28;20639;-72
2023/03/20 09:32:16;;;;;;;25.60;14.00;;;;;;;16.01;66.84;100908.03;5011669;28;20247;-71
2023/03/20 09:34:43;;;;;;;20.47;12.03;;;;;;;15.86;64.71;100906.22;5016623;28;20203;-72
2023/03/20 09:37:09;;;;;;;18.27;11.30;;;;;;;15.98;63.94;100892.88;5013121;28;20250;-72
2023/03/20 09:39:36;;;;;;;20.90;10.83;;;;;;;16.20;63.04;100901.75;5018284;28;20674;-72
2023/03/20 09:42:21;;;;;;;21.93;10.50;;;;;;;16.34;63.43;100899.06;5022465;28;20224;-73
2023/03/20 09:45:05;;;;;;;21.60;11.30;;;;;;;16.20;63.84;100903.53;5017564;28;20251;-73
2023/03/20 09:47:46;;;;;;;17.83;10.60;;;;;;;16.08;63.60;100906.25;5018899;28;20247;-72
2023/03/20 09:50:38;;;;;;;18.97;10.20;;;;;;;15.91;64.15;100901.78;5012216;28;20543;-73
2023/03/20 09:53:19;;;;;;;15.93;9.90;;;;;;;15.81;64.38;100909.78;4997800;28;20207;-73
2023/03/20 09:55:47;;;;;;;16.07;9.40;;;;;;;15.87;64.20;100905.34;5019123;28;20207;-73
2023/03/20 09:58:24;;;;;;;15.13;9.57;;;;;;;16.10;63.74;100910.69;5016431;28;20253;-73
2023/03/20 10:00:54;;;;;;;15.67;9.77;;;;;;;15.98;62.87;100910.69;5017132;28;20305;-72
2023/03/20 10:03:26;;;;;;;17.23;9.77;;;;;;;16.26;60.76;100906.22;5017923;28;20287;-73
2023/03/20 10:06:00;;;;;;;15.00;9.27;;;;;;;15.93;61.60;100908.00;5015939;28;20289;-73
2023/03/20 10:08:33;;;;;;;14.17;8.13;;;;;;;15.82;61.57;100907.13;5015011;28;20208;-72
2023/03/20 10:11:27;;;;;;;12.50;7.23;;;;;;;15.78;60.92;100909.81;5017727;28;20603;-74
2023/03/20 10:14:26;;;;;;;9.90;6.77;;;;;;;16.21;59.57;100906.22;5016856;28;20196;-72
2023/03/20 10:17:08;;;;;;;12.57;7.63;;;;;;;16.27;59.44;100913.34;5021036;28;20188;-74
2023/03/20 10:19:57;;;;;;;13.67;7.20;;;;;;;16.71;58.92;100907.03;5016693;28;20237;-73
2023/03/20 10:22:32;;;;;;;11.33;7.13;;;;;;;16.31;58.52;100904.41;5010215;28;20314;-71
2023/03/20 10:25:11;;;;;;;10.60;6.37;;;;;;;16.53;57.31;100911.50;5017769;28;20206;-70
2023/03/20 10:28:11;;;;;;;9.20;5.73;;;;;;;15.85;58.62;100906.22;5018077;28;20219;-71
2023/03/20 10:30:46;;;;;;;9.70;5.93;;;;;;;16.46;57.61;100898.16;5021783;28;20230;-74
2023/03/20 10:33:42;;;;;;;9.37;5.47;;;;;;;16.51;56.77;100899.94;5024496;28;20218;-72
2023/03/20 10:36:25;;;;;;;9.10;5.23;;;;;;;16.52;57.00;100895.47;5024190;28;20219;-72
2023/03/20 10:39:05;;;;;;;9.03;5.53;;;;;;;16.97;55.71;100894.44;5022459;28;20672;-72
2023/03/20 10:41:35;;;;;;;9.37;5.43;;;;;;;17.28;54.81;100892.50;5022044;28;20246;-72
2023/03/20 10:44:02;;;;;;;9.37;5.67;;;;;;;17.68;53.92;100894.94;5022832;28;20202;-71
2023/03/20 10:46:39;;;;;;;8.90;4.97;;;;;;;17.63;52.68;100886.03;5025944;28;20215;-70
2023/03/20 10:49:28;;;;;;;8.43;5.47;;;;;;;17.90;52.49;100895.66;5026045;28;20274;-71
2023/03/20 10:52:06;;;;;;;9.80;4.93;;;;;;;17.73;53.10;100890.44;5025272;28;20277;-71
2023/03/20 10:54:47;;;;;;;8.43;5.30;;;;;;;17.59;53.85;100884.25;5017023;28;20200;-71
2023/03/20 10:57:24;;;;;;;10.30;5.30;;;;;;;17.35;53.77;100878.16;5026696;28;20234;-71
2023/03/20 10:59:51;;;;;;;9.47;5.30;;;;;;;17.31;54.46;100879.09;5024479;28;20203;-71
2023/03/20 11:02:20;;;;;;;6.80;4.83;;;;;;;17.47;54.72;100879.88;5024550;28;20345;-72
2023/03/20 11:04:47;;;;;;;8.90;5.00;;;;;;;17.70;54.25;100875.28;5024025;28;20203;-72
2023/03/20 11:07:34;;;;;;;8.67;5.20;;;;;;;17.47;54.08;100872.72;5024505;28;20227;-72
2023/03/20 11:10:03;;;;;;;6.50;4.33;;;;;;;17.38;54.41;100883.50;5022327;28;20195;-72
2023/03/20 11:12:38;;;;;;;7.90;5.00;;;;;;;17.00;55.40;100878.38;5021832;28;20953;-71
2023/03/20 11:15:25;;;;;;;7.30;4.90;;;;;;;16.42;56.26;100872.34;5023978;28;20219;-72
2023/03/20 11:17:54;;;;;;;8.50;5.00;;;;;;;15.87;57.49;100872.41;5020197;28;20222;-74
2023/03/20 11:20:21;;;;;;;6.70;4.50;;;;;;;15.83;58.69;100878.63;5021270;28;20287;-72
2023/03/20 11:22:48;;;;;;;7.37;4.07;;;;;;;16.01;57.68;100880.41;5020198;28;20239;-73
2023/03/20 11:25:24;;;;;;;6.90;4.33;;;;;;;15.72;57.13;100881.31;5014689;28;20664;-72
2023/03/20 11:27:54;;;;;;;6.83;4.17;;;;;;;15.64;57.52;100883.09;5021497;28;20247;-71
2023/03/20 11:30:20;;;;;;;5.67;4.00;;;;;;;15.78;56.79;100878.63;5021633;28;20208;-72
2023/03/20 11:32:54;;;;;;;5.67;3.87;;;;;;;15.59;57.30;100875.06;5021547;28;20645;-73